Estelline, South Dakota
Current Conditions -  °F | °C
As of 10:44 PM on Saturday 20 Dec 2014 (Local Time) from KATY Reporting Station
Haze Haze  
Wind Chill: 17°   Ceiling: 200
Heat Index: 29°   Visibility: 2mi
Dew Point: 27°   Wind: 16mph
Humidity: 92%   Direction: 200°SSW
Pressure: 29.91"   Gusts: 23mph
Location:  44.57°N, 96.9°W
Report Text: KATY 210444Z AUTO 20014G20KT 2SM BR OVC002 M02/M03 A2991 RMK AO2 I1000 T10171028
Loading
Personal Weather Stations






























Interactive Weather Map New forecast layout! Learn more

10-Day Weather Forecast

Advertisements
Track Severe Weather on mobile